Hamilton Municipal Airport


Codes: KVGC/
Name: Hamilton Municipal Airport
City: Hamilton
Country: United States
Elevation: 1137 ft.

Photos at Hamilton Municipal Airport


   Photos courtesy of SpottingLog. You can add your own sightings and photos by signing up for a free trial today.



No photos found.

Weather at Hamilton Municipal Airport


Time (UTC)DescriptionTempratureWindCloud coverageVisibilityPressureHumidity
16-Jun-2024 00:00Clear Sky16°C7 mph, NW1%10000m1021hPa66%
16-Jun-2024 03:00Clear Sky13°C2 mph, NW1%10000m1022hPa73%
16-Jun-2024 06:00Few Clouds10°C0 mph, NW22%10000m1023hPa78%
16-Jun-2024 09:00Overcast Clouds7°C2 mph, NE98%10000m1024hPa77%
16-Jun-2024 12:00Overcast Clouds12°C2 mph, SE99%10000m1025hPa67%
16-Jun-2024 15:00Overcast Clouds17°C7 mph, SE100%10000m1024hPa53%
16-Jun-2024 18:00Overcast Clouds20°C7 mph, SE97%10000m1022hPa50%
16-Jun-2024 21:00Overcast Clouds20°C4 mph, S100%10000m1021hPa62%
17-Jun-2024 00:00Overcast Clouds17°C4 mph, SE92%10000m1020hPa74%
17-Jun-2024 03:00Overcast Clouds15°C9 mph, S86%10000m1020hPa80%
17-Jun-2024 06:00Overcast Clouds17°C11 mph, S93%10000m1020hPa78%
17-Jun-2024 09:00Overcast Clouds16°C13 mph, S97%10000m1019hPa79%
17-Jun-2024 12:00Overcast Clouds17°C13 mph, S97%10000m1020hPa80%
17-Jun-2024 15:00Scattered Clouds24°C11 mph, SW43%10000m1019hPa68%
17-Jun-2024 18:00Scattered Clouds28°C9 mph, SW40%10000m1018hPa58%
17-Jun-2024 21:00Few Clouds28°C7 mph, W13%10000m1018hPa68%
18-Jun-2024 00:00Light Rain24°C2 mph, SW10%10000m1019hPa82%
18-Jun-2024 03:00Clear Sky21°C4 mph, SW5%10000m1020hPa87%
18-Jun-2024 06:00Scattered Clouds20°C7 mph, SW42%10000m1021hPa91%
18-Jun-2024 09:00Broken Clouds19°C7 mph, S84%10000m1021hPa94%
18-Jun-2024 12:00Light Rain23°C4 mph, S69%10000m1022hPa88%
18-Jun-2024 15:00Overcast Clouds29°C4 mph, SW98%10000m1022hPa68%
18-Jun-2024 18:00Light Rain30°C2 mph, SW98%10000m1022hPa62%
18-Jun-2024 21:00Light Rain31°C4 mph, NW100%10000m1021hPa68%
19-Jun-2024 00:00Light Rain26°C2 mph, E82%10000m1021hPa86%
19-Jun-2024 03:00Scattered Clouds23°C7 mph, S39%10000m1023hPa90%
19-Jun-2024 06:00Broken Clouds22°C7 mph, S69%10000m1023hPa92%
19-Jun-2024 09:00Overcast Clouds22°C7 mph, S100%10000m1024hPa92%
19-Jun-2024 12:00Overcast Clouds24°C7 mph, SW100%10000m1025hPa89%
19-Jun-2024 15:00Overcast Clouds28°C4 mph, SW100%10000m1025hPa73%
19-Jun-2024 18:00Overcast Clouds31°C4 mph, SW100%10000m1024hPa61%
19-Jun-2024 21:00Light Rain27°C7 mph, W100%10000m1023hPa88%
20-Jun-2024 00:00Light Rain25°C2 mph, W100%10000m1023hPa87%
20-Jun-2024 03:00Light Rain22°C4 mph, SW100%10000m1024hPa93%
20-Jun-2024 06:00Light Rain22°C4 mph, SW100%10000m1024hPa94%
20-Jun-2024 09:00Light Rain21°C4 mph, SW100%10000m1024hPa94%
20-Jun-2024 12:00Overcast Clouds24°C2 mph, SW100%10000m1024hPa89%
20-Jun-2024 15:00Overcast Clouds28°C4 mph, W100%10000m1024hPa71%
20-Jun-2024 18:00Light Rain28°C7 mph, NW64%10000m1023hPa74%
20-Jun-2024 21:00Light Rain27°C9 mph, NW11%10000m1023hPa87%